createdAt,value
2023-01-27T00:01:05.571Z,4.00
2023-01-27T00:03:34.229Z,3.40
2023-01-27T00:06:04.097Z,3.45
2023-01-27T00:08:32.345Z,3.95
2023-01-27T00:11:18.951Z,4.12
2023-01-27T00:13:47.179Z,4.62
2023-01-27T00:16:15.500Z,3.50
2023-01-27T00:18:43.705Z,3.37
2023-01-27T00:21:30.040Z,4.30
2023-01-27T00:24:15.859Z,4.62
2023-01-27T00:26:44.146Z,4.12
2023-01-27T00:29:12.361Z,4.12
2023-01-27T00:31:58.511Z,4.85
2023-01-27T00:34:26.803Z,4.62
2023-01-27T00:36:55.103Z,4.40
2023-01-27T00:39:23.323Z,4.87
2023-01-27T00:41:51.539Z,4.65
2023-01-27T00:44:19.769Z,4.50
2023-01-27T00:46:48.014Z,5.08
2023-01-27T00:49:16.233Z,5.30
2023-01-27T00:51:44.826Z,5.40
2023-01-27T00:54:14.188Z,5.55
2023-01-27T00:56:42.431Z,5.58
2023-01-27T00:59:10.705Z,5.60
2023-01-27T01:01:39.559Z,6.78
2023-01-27T01:04:07.804Z,5.62
2023-01-27T01:06:36.030Z,6.55
2023-01-27T01:09:04.259Z,6.58
2023-01-27T01:11:32.483Z,7.10
2023-01-27T01:14:00.696Z,7.33
2023-01-27T01:16:29.020Z,7.12
2023-01-27T01:18:58.375Z,6.53
2023-01-27T01:21:26.671Z,6.78
2023-01-27T01:23:54.962Z,6.25
2023-01-27T01:26:23.431Z,6.87
2023-01-27T01:28:51.635Z,7.12
2023-01-27T01:31:20.970Z,7.90
2023-01-27T01:33:49.411Z,7.55
2023-01-27T01:36:18.790Z,8.30
2023-01-27T01:38:47.184Z,7.90
2023-01-27T01:41:16.863Z,8.35
2023-01-27T01:43:45.175Z,7.85
2023-01-27T01:46:14.060Z,8.03
2023-01-27T01:48:55.820Z,6.90
2023-01-27T01:51:25.657Z,9.20
2023-01-27T01:53:58.369Z,8.30
2023-01-27T01:56:40.017Z,8.25
2023-01-27T01:59:12.439Z,8.05
2023-01-27T02:04:09.690Z,7.33
2023-01-27T02:06:39.505Z,7.08
2023-01-27T02:09:08.303Z,8.38
2023-01-27T02:11:36.528Z,7.55
2023-01-27T02:14:04.732Z,7.47
2023-01-27T02:16:33.574Z,8.20
2023-01-27T02:19:01.910Z,8.38
2023-01-27T02:21:30.533Z,7.60
2023-01-27T02:24:02.300Z,7.50
2023-01-27T02:26:37.937Z,7.65
2023-01-27T02:29:07.753Z,8.60
2023-01-27T02:31:36.180Z,8.88
2023-01-27T02:34:08.903Z,8.53
2023-01-27T02:36:38.652Z,9.95
2023-01-27T02:39:08.465Z,9.73
2023-01-27T02:41:43.980Z,10.00
2023-01-27T02:44:12.755Z,11.55
2023-01-27T02:46:40.986Z,11.10
2023-01-27T02:49:09.182Z,9.75
2023-01-27T02:51:37.427Z,10.40
2023-01-27T02:54:05.800Z,9.05
2023-01-27T02:56:34.091Z,8.38
2023-01-27T02:59:02.321Z,7.03
2023-01-27T03:01:32.355Z,6.62
2023-01-27T03:04:00.595Z,6.28
2023-01-27T03:06:28.846Z,6.62
2023-01-27T03:08:57.162Z,7.45
2023-01-27T03:11:42.970Z,6.72
2023-01-27T03:14:11.275Z,7.28
2023-01-27T03:16:57.440Z,6.55
2023-01-27T03:19:26.623Z,6.55
2023-01-27T03:21:55.982Z,6.30
2023-01-27T03:24:24.342Z,6.53
2023-01-27T03:26:52.592Z,6.08
2023-01-27T03:29:38.510Z,7.70
2023-01-27T03:32:06.738Z,7.25
2023-01-27T03:34:34.969Z,7.72
2023-01-27T03:37:20.714Z,7.45
2023-01-27T03:40:06.593Z,7.47
2023-01-27T03:42:52.695Z,8.45
2023-01-27T03:45:38.597Z,7.47
2023-01-27T03:48:06.893Z,8.05
2023-01-27T03:50:38.258Z,7.90
2023-01-27T03:53:06.923Z,7.75
2023-01-27T03:55:35.814Z,7.03
2023-01-27T03:58:19.515Z,7.42
2023-01-27T04:00:49.338Z,7.72
2023-01-27T04:03:35.480Z,7.25
2023-01-27T04:06:22.964Z,6.42
2023-01-27T04:08:51.196Z,6.72
2023-01-27T04:11:37.186Z,6.25
2023-01-27T04:14:06.169Z,5.92
2023-01-27T04:16:36.527Z,6.17
2023-01-27T04:19:09.344Z,5.72
2023-01-27T04:21:38.614Z,5.83
2023-01-27T04:24:12.243Z,6.00
2023-01-27T04:26:41.644Z,5.95
2023-01-27T04:29:10.208Z,5.10
2023-01-27T04:31:39.062Z,4.83
2023-01-27T04:34:07.898Z,5.15
2023-01-27T04:36:36.454Z,5.28
2023-01-27T04:39:05.045Z,5.22
2023-01-27T04:41:33.580Z,4.95
2023-01-27T04:44:02.594Z,5.90
2023-01-27T04:46:31.065Z,5.95
2023-01-27T04:48:59.563Z,5.97
2023-01-27T04:51:27.954Z,5.30
2023-01-27T04:53:56.321Z,5.83
2023-01-27T04:56:39.592Z,6.85
2023-01-27T04:59:17.445Z,6.40
2023-01-27T05:01:46.097Z,6.97
2023-01-27T05:04:14.611Z,7.60
2023-01-27T05:06:43.158Z,8.15
2023-01-27T05:09:13.785Z,8.13
2023-01-27T05:11:42.358Z,7.95
2023-01-27T05:14:10.890Z,10.20
2023-01-27T05:16:40.061Z,9.15
2023-01-27T05:19:10.090Z,10.03
2023-01-27T05:21:38.878Z,9.75
2023-01-27T05:24:07.657Z,10.03
2023-01-27T05:26:36.191Z,9.73
2023-01-27T05:29:04.746Z,9.43
2023-01-27T05:31:33.493Z,9.98
2023-01-27T05:34:02.352Z,9.10
2023-01-27T05:36:31.470Z,9.73
2023-01-27T05:38:59.993Z,8.78
2023-01-27T05:41:31.000Z,9.58
2023-01-27T05:43:59.591Z,9.88
2023-01-27T05:46:29.788Z,8.93
2023-01-27T05:48:59.527Z,10.03
2023-01-27T05:51:29.257Z,9.50
2023-01-27T05:53:57.574Z,9.55
2023-01-27T05:56:27.526Z,9.95
2023-01-27T05:58:56.589Z,9.63
2023-01-27T06:01:28.636Z,9.68
2023-01-27T06:03:57.489Z,10.88
2023-01-27T06:06:27.772Z,10.53
2023-01-27T06:08:56.493Z,10.10
2023-01-27T06:11:25.571Z,10.53
2023-01-27T06:13:54.820Z,10.75
2023-01-27T06:16:24.398Z,10.32
2023-01-27T06:18:53.123Z,10.70
2023-01-27T06:21:21.815Z,10.32
2023-01-27T06:23:50.501Z,10.32
2023-01-27T06:26:20.117Z,12.07
2023-01-27T06:28:48.913Z,11.35
2023-01-27T06:31:18.775Z,10.75
2023-01-27T06:33:47.501Z,11.55
2023-01-27T06:36:18.611Z,10.78
2023-01-27T06:38:47.470Z,10.25
2023-01-27T06:41:15.769Z,10.78
2023-01-27T06:43:44.403Z,10.90
2023-01-27T06:46:13.330Z,10.38
2023-01-27T06:48:41.864Z,10.15
2023-01-27T06:51:10.704Z,10.25
2023-01-27T06:53:39.247Z,9.43
2023-01-27T06:56:08.135Z,9.35
2023-01-27T06:58:36.727Z,9.00
2023-01-27T07:01:07.095Z,10.43
2023-01-27T07:03:35.776Z,9.83
2023-01-27T07:06:04.387Z,10.20
2023-01-27T07:08:32.939Z,10.80
2023-01-27T07:11:05.022Z,9.70
2023-01-27T07:13:34.778Z,10.10
2023-01-27T07:16:03.019Z,10.25
2023-01-27T07:18:32.053Z,9.75
2023-01-27T07:21:00.592Z,10.80
2023-01-27T07:23:29.145Z,10.38
2023-01-27T07:26:00.061Z,9.93
2023-01-27T07:28:27.915Z,10.53
2023-01-27T07:30:56.499Z,10.55
2023-01-27T07:33:25.055Z,10.75
2023-01-27T07:35:53.314Z,10.75
2023-01-27T07:38:21.594Z,11.78
2023-01-27T07:40:50.093Z,12.45
2023-01-27T07:43:18.366Z,13.35
2023-01-27T07:45:48.314Z,10.23
2023-01-27T07:48:16.530Z,10.75
2023-01-27T07:50:44.721Z,10.35
2023-01-27T07:53:12.970Z,10.45
2023-01-27T07:55:41.178Z,10.10
2023-01-27T07:58:09.684Z,8.85
2023-01-27T08:00:37.930Z,9.70
2023-01-27T08:03:06.339Z,10.08
2023-01-27T08:05:35.534Z,9.38
2023-01-27T08:08:04.322Z,9.45
2023-01-27T08:10:32.669Z,10.63
2023-01-27T08:13:00.953Z,9.93
2023-01-27T08:15:29.188Z,10.43
2023-01-27T08:17:57.756Z,9.90
2023-01-27T08:20:26.618Z,10.25
2023-01-27T08:22:54.879Z,10.08
2023-01-27T08:25:23.104Z,9.85
2023-01-27T08:27:52.860Z,9.50
2023-01-27T08:30:21.509Z,9.58
2023-01-27T08:32:49.732Z,8.80
2023-01-27T08:35:18.163Z,9.75
2023-01-27T08:37:48.421Z,8.40
2023-01-27T08:40:17.193Z,9.70
2023-01-27T08:42:45.438Z,8.85
2023-01-27T08:45:13.841Z,9.30
2023-01-27T08:47:42.126Z,8.73
2023-01-27T08:50:13.717Z,8.10
2023-01-27T08:52:42.223Z,9.03
2023-01-27T08:55:10.551Z,7.58
2023-01-27T08:57:38.841Z,8.08
2023-01-27T09:00:07.844Z,8.30
2023-01-27T09:02:36.229Z,7.60
2023-01-27T09:05:04.962Z,7.70
2023-01-27T09:07:34.070Z,8.73
2023-01-27T09:10:15.932Z,8.13
2023-01-27T09:12:32.411Z,8.55
2023-01-27T09:15:00.622Z,7.90
2023-01-27T09:17:28.926Z,8.05
2023-01-27T09:19:57.166Z,8.33
2023-01-27T09:22:25.464Z,9.60
2023-01-27T09:24:54.022Z,9.93
2023-01-27T09:27:33.474Z,9.10
2023-01-27T09:29:52.150Z,8.88
2023-01-27T09:32:20.364Z,8.60
2023-01-27T09:34:48.664Z,9.30
2023-01-27T09:37:17.000Z,10.38
2023-01-27T09:39:46.751Z,9.53
2023-01-27T09:42:34.591Z,8.85
2023-01-27T09:45:16.380Z,8.65
2023-01-27T09:47:55.162Z,9.13
2023-01-27T09:50:24.943Z,9.40
2023-01-27T09:53:13.952Z,8.08
2023-01-27T09:55:55.738Z,8.25
2023-01-27T09:58:31.585Z,8.63
2023-01-27T10:01:03.994Z,8.88
2023-01-27T10:03:39.645Z,8.25
2023-01-27T10:06:12.361Z,8.93
2023-01-27T10:08:51.051Z,9.35
2023-01-27T10:11:23.710Z,9.50
2023-01-27T10:13:53.455Z,8.65
2023-01-27T10:16:23.298Z,9.20
2023-01-27T10:18:58.799Z,8.75
2023-01-27T10:21:28.553Z,9.15
2023-01-27T10:24:04.616Z,10.15
2023-01-27T10:26:42.702Z,9.38
2023-01-27T10:29:12.427Z,7.85
2023-01-27T10:31:48.165Z,8.93
2023-01-27T10:34:20.579Z,8.90
2023-01-27T10:36:59.338Z,9.80
2023-01-27T10:39:39.768Z,8.75
2023-01-27T10:42:09.650Z,8.65
2023-01-27T10:44:45.097Z,8.30
2023-01-27T10:47:17.823Z,8.20
2023-01-27T10:49:53.633Z,7.75
2023-01-27T10:52:37.228Z,7.45
2023-01-27T10:55:14.659Z,6.70
2023-01-27T10:57:46.310Z,7.08
2023-01-27T11:03:24.005Z,6.53
2023-01-27T11:05:55.732Z,6.72
2023-01-27T11:08:39.223Z,6.90
2023-01-27T11:11:27.825Z,8.43
2023-01-27T11:14:17.386Z,7.28
2023-01-27T11:16:51.831Z,7.05
2023-01-27T11:19:23.525Z,7.75
2023-01-27T11:22:07.170Z,7.10
2023-01-27T11:24:41.073Z,7.50
2023-01-27T11:27:21.493Z,7.72
2023-01-27T11:29:58.958Z,6.35
2023-01-27T11:32:45.483Z,6.80
2023-01-27T11:35:16.240Z,5.40
2023-01-27T11:37:49.955Z,6.15
2023-01-27T11:40:19.674Z,6.40
2023-01-27T11:42:50.096Z,6.47
2023-01-27T11:45:21.197Z,7.10
2023-01-27T11:47:52.816Z,6.22
2023-01-27T11:50:22.115Z,6.87
2023-01-27T11:52:54.379Z,6.97
2023-01-27T11:55:26.338Z,7.92
2023-01-27T11:58:14.708Z,7.62
2023-01-27T12:00:49.373Z,7.47
2023-01-27T12:03:54.009Z,7.90
2023-01-27T12:06:25.706Z,8.05
2023-01-27T12:08:54.233Z,7.93
2023-01-27T12:11:25.308Z,8.78
2023-01-27T12:14:06.788Z,8.30
2023-01-27T12:16:47.649Z,9.30
2023-01-27T12:19:28.449Z,8.50
2023-01-27T12:22:05.803Z,7.80
2023-01-27T12:24:40.430Z,8.05
2023-01-27T12:27:10.179Z,6.87
2023-01-27T12:29:39.958Z,8.95
2023-01-27T12:32:09.724Z,7.30
2023-01-27T12:34:38.101Z,7.53
2023-01-27T12:37:07.841Z,7.50
2023-01-27T12:39:38.658Z,6.95
2023-01-27T12:42:09.163Z,6.85
2023-01-27T12:47:34.634Z,7.45
2023-01-27T12:50:20.898Z,7.03
2023-01-27T12:53:02.364Z,6.95
2023-01-27T12:55:35.154Z,8.40
2023-01-27T12:58:03.947Z,6.80
2023-01-27T13:00:36.654Z,7.40
2023-01-27T13:03:06.783Z,8.73
2023-01-27T13:05:39.507Z,7.87
2023-01-27T13:08:09.247Z,8.58
2023-01-27T13:10:38.777Z,9.48
2023-01-27T13:13:08.529Z,8.83
2023-01-27T13:15:36.855Z,8.43
2023-01-27T13:18:15.726Z,9.28
2023-01-27T13:20:45.183Z,8.90
2023-01-27T13:23:29.974Z,8.75
2023-01-27T13:26:11.551Z,9.55
2023-01-27T13:28:52.827Z,8.70
2023-01-27T13:31:19.983Z,9.13
2023-01-27T13:33:49.766Z,8.90
2023-01-27T13:36:34.305Z,8.70
2023-01-27T13:39:04.073Z,9.45
2023-01-27T13:41:36.048Z,11.25
2023-01-27T13:44:05.924Z,10.15
2023-01-27T13:46:39.214Z,8.10
2023-01-27T13:49:14.966Z,8.48
2023-01-27T13:51:44.735Z,7.65
2023-01-27T13:54:15.423Z,7.00
2023-01-27T13:57:01.687Z,7.37
2023-01-27T13:59:31.926Z,8.80
2023-01-27T14:02:04.339Z,9.28
2023-01-27T14:04:40.275Z,7.47
2023-01-27T14:07:29.239Z,6.85
2023-01-27T14:10:08.150Z,7.15
2023-01-27T14:12:46.112Z,7.37
2023-01-27T14:15:28.277Z,5.70
2023-01-27T14:18:07.014Z,7.45
2023-01-27T14:20:51.682Z,5.55
2023-01-27T14:23:27.589Z,5.15
2023-01-27T14:26:03.763Z,7.90
2023-01-27T14:28:33.663Z,6.33
2023-01-27T14:31:03.641Z,5.05
2023-01-27T14:33:48.385Z,4.75
2023-01-27T14:36:22.862Z,6.40
2023-01-27T14:39:01.590Z,7.37
2023-01-27T14:41:45.388Z,6.15
2023-01-27T14:44:29.965Z,4.20
2023-01-27T14:47:13.731Z,6.77
2023-01-27T14:50:00.418Z,5.62
2023-01-27T14:52:40.038Z,7.17
2023-01-27T14:55:11.843Z,6.35
2023-01-27T14:58:08.801Z,5.42
2023-01-27T15:00:54.576Z,5.80
2023-01-27T15:03:38.006Z,5.37
2023-01-27T15:06:13.416Z,5.45
2023-01-27T15:09:04.264Z,4.87
2023-01-27T15:11:38.438Z,5.85
2023-01-27T15:14:32.579Z,5.62
2023-01-27T15:17:23.435Z,6.50
2023-01-27T15:20:13.133Z,6.22
2023-01-27T15:22:44.968Z,6.17
2023-01-27T15:25:30.143Z,6.27
2023-01-27T15:27:59.174Z,6.80
2023-01-27T15:30:31.574Z,7.03
2023-01-27T15:33:00.186Z,5.97
2023-01-27T15:35:41.441Z,6.25
2023-01-27T15:38:15.971Z,6.00
2023-01-27T15:41:14.280Z,5.80
2023-01-27T15:43:44.064Z,5.28
2023-01-27T15:46:27.481Z,5.95
2023-01-27T15:48:59.999Z,5.60
2023-01-27T15:53:59.998Z,5.30
2023-01-27T15:56:46.666Z,5.65
2023-01-27T15:59:18.481Z,5.42
2023-01-27T16:01:49.211Z,4.78
2023-01-27T16:04:21.158Z,5.20
2023-01-27T16:06:52.792Z,5.15
2023-01-27T16:09:24.437Z,5.17
2023-01-27T16:12:03.404Z,5.30
2023-01-27T16:14:43.347Z,5.97
2023-01-27T16:17:17.781Z,5.83
2023-01-27T16:19:55.339Z,5.92
2023-01-27T16:22:26.752Z,6.17
2023-01-27T16:24:58.721Z,5.25
2023-01-27T16:27:42.136Z,4.95
2023-01-27T16:30:25.738Z,5.42
2023-01-27T16:33:06.547Z,5.00
2023-01-27T16:35:41.234Z,5.20
2023-01-27T16:38:13.382Z,5.28
2023-01-27T16:40:43.919Z,5.45
2023-01-27T16:43:18.343Z,7.67
2023-01-27T16:45:52.823Z,5.58
2023-01-27T16:48:42.478Z,5.90
2023-01-27T16:51:26.153Z,6.95
2023-01-27T16:53:57.825Z,8.95
2023-01-27T16:56:32.626Z,7.20
2023-01-27T16:59:06.633Z,6.70
2023-01-27T17:01:53.106Z,6.03
2023-01-27T17:04:24.810Z,6.37
2023-01-27T17:06:55.968Z,6.30
2023-01-27T17:09:32.237Z,6.65
2023-01-27T17:12:01.096Z,6.67
2023-01-27T17:14:36.147Z,6.87
2023-01-27T17:17:06.832Z,6.83
2023-01-27T17:19:37.358Z,6.22
2023-01-27T17:22:11.711Z,6.83
2023-01-27T17:24:41.435Z,6.97
2023-01-27T17:27:11.157Z,6.30
2023-01-27T17:29:40.968Z,7.15
2023-01-27T17:32:22.809Z,6.17
2023-01-27T17:34:52.384Z,6.27
2023-01-27T17:37:21.552Z,6.90
2023-01-27T17:39:54.280Z,6.33
2023-01-27T17:42:24.230Z,6.53
2023-01-27T17:44:52.452Z,6.33
2023-01-27T17:47:22.031Z,7.03
2023-01-27T17:49:50.512Z,7.37
2023-01-27T17:52:20.524Z,7.47
2023-01-27T17:54:49.740Z,7.00
2023-01-27T17:57:27.153Z,7.30
2023-01-27T17:59:56.902Z,6.78
2023-01-27T18:02:29.500Z,7.83
2023-01-27T18:04:59.607Z,7.92
2023-01-27T18:07:28.325Z,6.70
2023-01-27T18:09:57.275Z,6.45
2023-01-27T18:12:32.902Z,6.35
2023-01-27T18:15:08.676Z,6.00
2023-01-27T18:17:36.976Z,6.28
2023-01-27T18:20:07.133Z,5.50
2023-01-27T18:22:35.664Z,6.28
2023-01-27T18:25:04.169Z,6.53
2023-01-27T18:27:34.765Z,6.35
2023-01-27T18:30:11.195Z,6.37
2023-01-27T18:32:40.986Z,7.35
2023-01-27T18:35:29.606Z,6.15
2023-01-27T18:37:59.766Z,8.08
2023-01-27T18:40:35.185Z,7.00
2023-01-27T18:43:04.283Z,6.53
2023-01-27T18:45:32.535Z,7.58
2023-01-27T18:48:00.895Z,8.58
2023-01-27T18:50:29.267Z,7.37
2023-01-27T18:52:57.495Z,6.95
2023-01-27T18:55:29.477Z,7.35
2023-01-27T18:57:58.828Z,6.60
2023-01-27T19:00:28.447Z,6.97
2023-01-27T19:02:58.842Z,9.18
2023-01-27T19:05:28.776Z,13.62
2023-01-27T19:07:57.351Z,7.72
2023-01-27T19:10:28.013Z,6.90
2023-01-27T19:12:58.811Z,6.90
2023-01-27T19:15:28.611Z,6.78
2023-01-27T19:17:57.773Z,8.38
2023-01-27T19:20:27.593Z,7.55
2023-01-27T19:22:56.550Z,7.10
2023-01-27T19:25:26.517Z,8.68
2023-01-27T19:27:55.527Z,8.00
2023-01-27T19:30:27.612Z,7.15
2023-01-27T19:32:56.564Z,8.55
2023-01-27T19:35:25.533Z,8.48
2023-01-27T19:37:54.754Z,9.05
2023-01-27T19:40:27.072Z,8.65
2023-01-27T19:42:55.516Z,8.55
2023-01-27T19:45:24.189Z,8.58
2023-01-27T19:47:52.752Z,8.45
2023-01-27T19:50:22.864Z,8.83
2023-01-27T19:52:51.045Z,8.58
2023-01-27T19:55:20.540Z,8.43
2023-01-27T19:57:49.101Z,8.90
2023-01-27T20:00:27.967Z,7.83
2023-01-27T20:02:56.522Z,7.97
2023-01-27T20:05:25.942Z,8.30
2023-01-27T20:07:58.332Z,7.90
2023-01-27T20:10:28.055Z,7.20
2023-01-27T20:13:00.474Z,8.15
2023-01-27T20:15:29.631Z,8.63
2023-01-27T20:17:57.842Z,8.25
2023-01-27T20:20:26.822Z,8.93
2023-01-27T20:22:55.180Z,8.68
2023-01-27T20:25:24.772Z,8.90
2023-01-27T20:27:54.319Z,7.85
2023-01-27T20:30:24.135Z,7.75
2023-01-27T20:32:55.001Z,7.75
2023-01-27T20:35:22.467Z,8.88
2023-01-27T20:37:51.418Z,7.30
2023-01-27T20:40:21.249Z,7.87
2023-01-27T20:42:49.738Z,6.83
2023-01-27T20:45:18.343Z,7.25
2023-01-27T20:47:50.197Z,7.62
2023-01-27T20:50:18.986Z,7.70
2023-01-27T20:52:50.296Z,7.15
2023-01-27T20:55:22.285Z,7.60
2023-01-27T20:57:50.562Z,7.28
2023-01-27T21:00:19.742Z,7.05
2023-01-27T21:02:48.731Z,6.95
2023-01-27T21:05:17.385Z,6.72
2023-01-27T21:07:45.951Z,6.55
2023-01-27T21:10:14.341Z,6.37
2023-01-27T21:12:42.843Z,6.62
2023-01-27T21:15:11.652Z,6.60
2023-01-27T21:17:40.184Z,6.45
2023-01-27T21:20:08.909Z,6.97
2023-01-27T21:22:37.385Z,6.28
2023-01-27T21:25:05.818Z,6.83
2023-01-27T21:27:34.240Z,6.20
2023-01-27T21:30:02.513Z,5.72
2023-01-27T21:32:30.896Z,6.10
2023-01-27T21:34:59.579Z,5.72
2023-01-27T21:37:27.988Z,4.50
2023-01-27T21:39:56.226Z,5.10
2023-01-27T21:42:42.022Z,5.20
2023-01-27T21:45:15.995Z,4.85
2023-01-27T21:47:44.833Z,5.20
2023-01-27T21:50:15.520Z,4.75
2023-01-27T21:52:44.732Z,5.42
2023-01-27T21:55:17.365Z,4.92
2023-01-27T21:57:47.248Z,5.28
2023-01-27T22:00:16.899Z,6.45
2023-01-27T22:02:45.229Z,5.15
2023-01-27T22:05:13.741Z,5.55
2023-01-27T22:07:42.212Z,5.78
2023-01-27T22:10:17.692Z,5.70
2023-01-27T22:12:46.184Z,4.92
2023-01-27T22:15:15.570Z,5.58
2023-01-27T22:17:44.799Z,2.80
2023-01-27T22:20:14.180Z,6.55
2023-01-27T22:22:43.166Z,6.55
2023-01-27T22:25:13.799Z,6.33
2023-01-27T22:27:42.768Z,6.85
2023-01-27T22:30:12.782Z,6.08
2023-01-27T22:32:41.405Z,7.45
2023-01-27T22:35:09.748Z,6.72
2023-01-27T22:37:38.227Z,7.15
2023-01-27T22:40:06.823Z,6.15
2023-01-27T22:42:35.106Z,6.67
2023-01-27T22:45:03.537Z,7.67
2023-01-27T22:47:31.718Z,6.62
2023-01-27T22:49:59.947Z,6.05
2023-01-27T22:52:28.195Z,5.95
2023-01-27T22:54:56.550Z,5.20
2023-01-27T22:57:26.488Z,5.08
2023-01-27T22:59:54.855Z,4.62
2023-01-27T23:02:23.218Z,5.80
2023-01-27T23:04:51.753Z,6.72
2023-01-27T23:07:20.020Z,6.50
2023-01-27T23:09:48.343Z,6.37
2023-01-27T23:12:16.912Z,6.15
2023-01-27T23:14:45.221Z,5.58
2023-01-27T23:17:13.477Z,5.97
2023-01-27T23:19:41.859Z,4.83
2023-01-27T23:22:10.266Z,5.60
2023-01-27T23:24:38.530Z,5.80
2023-01-27T23:27:06.807Z,6.40
2023-01-27T23:29:35.102Z,3.50
2023-01-27T23:32:03.418Z,4.67
2023-01-27T23:34:31.633Z,5.22
2023-01-27T23:36:59.946Z,5.15
2023-01-27T23:39:28.271Z,6.20
2023-01-27T23:41:56.626Z,5.35
2023-01-27T23:44:24.823Z,5.60
2023-01-27T23:46:53.100Z,5.50
2023-01-27T23:49:21.435Z,5.90
2023-01-27T23:51:49.671Z,5.75
2023-01-27T23:54:17.910Z,5.40
2023-01-27T23:56:46.215Z,5.40
2023-01-27T23:59:15.043Z,5.55
